createdAt,value
2018-05-25T00:01:34.103Z,101716.69
2018-05-25T00:04:00.142Z,101710.47
2018-05-25T00:06:26.097Z,101713.45
2018-05-25T00:08:52.180Z,101717.46
2018-05-25T00:11:18.125Z,101715.53
2018-05-25T00:13:44.264Z,101717.15
2018-05-25T00:16:10.159Z,101724.33
2018-05-25T00:18:36.116Z,101722.95
2018-05-25T00:21:02.099Z,101728.57
2018-05-25T00:23:28.029Z,101726.21
2018-05-25T00:25:54.027Z,101729.81
2018-05-25T00:28:19.988Z,101726.84
2018-05-25T00:30:45.896Z,101728.09
2018-05-25T00:33:11.900Z,101726.31
2018-05-25T00:35:37.809Z,101730.34
2018-05-25T00:38:07.633Z,101724.44
2018-05-25T00:40:36.272Z,101725.81
2018-05-25T00:43:02.217Z,101719.24
2018-05-25T00:45:28.142Z,101721.48
2018-05-25T00:47:54.173Z,101712.94
2018-05-25T00:50:20.173Z,101722.66
2018-05-25T00:52:46.088Z,101728.47
2018-05-25T00:55:24.488Z,101725.48
2018-05-25T00:57:50.468Z,101723.48
2018-05-25T01:00:16.391Z,101720.95
2018-05-25T01:02:42.367Z,101725.25
2018-05-25T01:05:08.296Z,101725.02
2018-05-25T01:07:34.547Z,101729.09
2018-05-25T01:10:00.673Z,101725.73
2018-05-25T01:12:26.610Z,101721.53
2018-05-25T01:14:52.576Z,101726.27
2018-05-25T01:17:18.559Z,101724.09
2018-05-25T01:19:44.575Z,101734.27
2018-05-25T01:22:11.579Z,101716.43
2018-05-25T01:24:38.143Z,101724.53
2018-05-25T01:27:04.182Z,101725.55
2018-05-25T01:29:30.198Z,101726.08
2018-05-25T01:31:56.224Z,101726.27
2018-05-25T01:34:22.219Z,101721.16
2018-05-25T01:36:48.179Z,101723.80
2018-05-25T01:39:14.145Z,101720.45
2018-05-25T01:41:40.947Z,101721.33
2018-05-25T01:44:06.871Z,101717.82
2018-05-25T01:46:33.167Z,101719.36
2018-05-25T01:48:59.069Z,101721.16
2018-05-25T01:51:25.019Z,101720.27
2018-05-25T01:53:51.191Z,101722.54
2018-05-25T01:56:17.096Z,101727.58
2018-05-25T01:58:43.007Z,101725.77
2018-05-25T02:01:10.043Z,101727.27
2018-05-25T02:03:36.128Z,101731.10
2018-05-25T02:06:02.142Z,101734.42
2018-05-25T02:08:28.092Z,101733.08
2018-05-25T02:10:54.019Z,101723.55
2018-05-25T02:13:19.991Z,101728.79
2018-05-25T02:15:45.948Z,101733.80
2018-05-25T02:18:11.938Z,101725.44
2018-05-25T02:20:37.871Z,101721.13
2018-05-25T02:23:03.821Z,101723.20
2018-05-25T02:25:30.134Z,101717.58
2018-05-25T02:27:56.179Z,101721.89
2018-05-25T02:30:22.251Z,101712.95
2018-05-25T02:32:48.159Z,101719.20
2018-05-25T02:35:14.096Z,101715.02
2018-05-25T02:37:52.269Z,101718.29
2018-05-25T02:40:18.172Z,101714.16
2018-05-25T02:42:44.238Z,101715.63
2018-05-25T02:45:10.538Z,101721.14
2018-05-25T02:47:36.495Z,101712.44
2018-05-25T02:50:02.411Z,101716.14
2018-05-25T02:52:28.399Z,101708.28
2018-05-25T02:54:54.461Z,101710.86
2018-05-25T02:57:20.491Z,101716.29
2018-05-25T02:59:46.467Z,101713.51
2018-05-25T03:02:12.404Z,101716.66
2018-05-25T03:04:38.306Z,101718.84
2018-05-25T03:07:04.446Z,101714.95
2018-05-25T03:09:30.415Z,101712.55
2018-05-25T03:11:56.399Z,101713.12
2018-05-25T03:14:22.419Z,101711.86
2018-05-25T03:16:48.340Z,101703.06
2018-05-25T03:19:14.311Z,101702.19
2018-05-25T03:21:40.365Z,101713.25
2018-05-25T03:24:06.361Z,101702.84
2018-05-25T03:26:32.271Z,101703.71
2018-05-25T03:28:58.315Z,101705.52
2018-05-25T03:31:24.422Z,101707.38
2018-05-25T03:33:50.496Z,101712.63
2018-05-25T03:36:21.552Z,101704.30
2018-05-25T03:38:47.495Z,101707.77
2018-05-25T03:41:13.438Z,101707.07
2018-05-25T03:43:39.579Z,101709.13
2018-05-25T03:46:05.481Z,101711.75
2018-05-25T03:48:31.448Z,101710.45
2018-05-25T03:50:57.771Z,101712.70
2018-05-25T03:53:23.797Z,101710.78
2018-05-25T03:55:49.825Z,101717.05
2018-05-25T03:58:15.808Z,101717.28
2018-05-25T04:00:54.064Z,101710.16
2018-05-25T04:03:20.059Z,101720.80
2018-05-25T04:05:46.031Z,101714.61
2018-05-25T04:08:12.040Z,101721.04
2018-05-25T04:10:38.031Z,101716.09
2018-05-25T04:13:03.942Z,101723.41
2018-05-25T04:15:30.976Z,101719.59
2018-05-25T04:17:57.188Z,101713.31
2018-05-25T04:20:23.242Z,101717.47
2018-05-25T04:22:49.176Z,101711.20
2018-05-25T04:25:21.366Z,101714.97
2018-05-25T04:27:47.312Z,101716.30
2018-05-25T04:30:13.290Z,101717.53
2018-05-25T04:32:40.285Z,101712.32
2018-05-25T04:35:06.184Z,101719.30
2018-05-25T04:37:32.100Z,101717.47
2018-05-25T04:39:58.094Z,101720.75
2018-05-25T04:42:24.107Z,101721.44
2018-05-25T04:44:50.263Z,101727.94
2018-05-25T04:47:16.216Z,101711.16
2018-05-25T04:49:42.347Z,101718.37
2018-05-25T04:52:08.309Z,101712.52
2018-05-25T04:54:34.383Z,101716.38
2018-05-25T04:57:00.377Z,101716.45
2018-05-25T04:59:26.399Z,101715.61
2018-05-25T05:01:52.512Z,101711.89
2018-05-25T05:04:18.476Z,101707.01
2018-05-25T05:06:44.616Z,101715.48
2018-05-25T05:09:10.699Z,101720.75
2018-05-25T05:11:36.666Z,101717.25
2018-05-25T05:14:02.621Z,101713.82
2018-05-25T05:16:28.630Z,101709.92
2018-05-25T05:18:54.613Z,101712.17
2018-05-25T05:21:20.704Z,101706.16
2018-05-25T05:23:46.962Z,101707.58
2018-05-25T05:26:12.879Z,101717.63
2018-05-25T05:28:38.804Z,101712.56
2018-05-25T05:31:07.943Z,101716.35
2018-05-25T05:33:39.607Z,101711.27
2018-05-25T05:36:08.335Z,101720.53
2018-05-25T05:38:43.409Z,101719.06
2018-05-25T05:41:09.948Z,101711.95
2018-05-25T05:43:35.940Z,101716.40
2018-05-25T05:46:02.032Z,101716.66
2018-05-25T05:48:28.157Z,101714.98
2018-05-25T05:50:54.174Z,101716.58
2018-05-25T05:53:20.201Z,101720.81
2018-05-25T05:55:49.388Z,101706.98
2018-05-25T05:58:15.336Z,101715.99
2018-05-25T06:00:41.340Z,101718.13
2018-05-25T06:03:07.533Z,101720.19
2018-05-25T06:05:33.459Z,101716.05
2018-05-25T06:07:59.549Z,101714.79
2018-05-25T06:10:25.530Z,101717.19
2018-05-25T06:12:51.532Z,101717.25
2018-05-25T06:15:17.466Z,101709.94
2018-05-25T06:17:43.439Z,101712.02
2018-05-25T06:20:09.432Z,101711.73
2018-05-25T06:22:36.652Z,101710.89
2018-05-25T06:25:02.965Z,101712.61
2018-05-25T06:27:28.935Z,101717.48
2018-05-25T06:29:54.893Z,101713.25
2018-05-25T06:32:21.008Z,101713.66
2018-05-25T06:34:46.986Z,101715.31
2018-05-25T06:37:12.865Z,101712.25
2018-05-25T06:39:39.004Z,101711.09
2018-05-25T06:42:05.116Z,101707.04
2018-05-25T06:44:31.129Z,101708.84
2018-05-25T06:46:57.153Z,101702.13
2018-05-25T06:49:23.217Z,101703.98
2018-05-25T06:51:49.135Z,101700.77
2018-05-25T06:54:15.101Z,101707.34
2018-05-25T06:56:41.099Z,101699.38
2018-05-25T06:59:06.992Z,101699.81
2018-05-25T07:01:36.370Z,101699.02
2018-05-25T07:04:10.361Z,101699.69
2018-05-25T07:06:40.339Z,101700.23
2018-05-25T07:09:10.035Z,101696.86
2018-05-25T07:11:35.948Z,101700.70
2018-05-25T07:14:10.180Z,101702.42
2018-05-25T07:16:40.167Z,101702.96
2018-05-25T07:19:06.792Z,101701.34
2018-05-25T07:21:32.756Z,101701.33
2018-05-25T07:23:58.767Z,101695.84
2018-05-25T07:26:24.799Z,101700.52
2018-05-25T07:28:50.903Z,101704.42
2018-05-25T07:31:16.947Z,101692.95
2018-05-25T07:33:43.568Z,101698.44
2018-05-25T07:36:09.635Z,101700.12
2018-05-25T07:38:35.840Z,101704.16
2018-05-25T07:41:02.069Z,101701.47
2018-05-25T07:43:28.156Z,101695.41
2018-05-25T07:45:54.142Z,101705.07
2018-05-25T07:48:20.373Z,101706.75
2018-05-25T07:50:46.649Z,101701.11
2018-05-25T07:53:14.078Z,101693.88
2018-05-25T07:55:41.281Z,101695.81
2018-05-25T07:58:07.392Z,101700.16
2018-05-25T08:00:33.326Z,101700.12
2018-05-25T08:02:59.414Z,101696.73
2018-05-25T08:05:25.555Z,101702.20
2018-05-25T08:07:51.699Z,101698.13
2018-05-25T08:10:17.936Z,101706.02
2018-05-25T08:12:44.726Z,101706.73
2018-05-25T08:15:10.711Z,101697.98
2018-05-25T08:17:41.077Z,101700.52
2018-05-25T08:20:09.394Z,101694.78
2018-05-25T08:22:38.636Z,101693.56
2018-05-25T08:25:04.633Z,101700.14
2018-05-25T08:27:30.763Z,101698.04
2018-05-25T08:29:56.987Z,101700.42
2018-05-25T08:32:23.145Z,101699.44
2018-05-25T08:34:49.738Z,101704.45
2018-05-25T08:37:18.612Z,101696.84
2018-05-25T08:39:44.836Z,101698.83
2018-05-25T08:42:10.919Z,101698.33
2018-05-25T08:44:37.258Z,101694.69
2018-05-25T08:47:06.127Z,101694.19
2018-05-25T08:49:33.207Z,101697.64
2018-05-25T08:52:00.098Z,101695.94
2018-05-25T08:54:26.117Z,101695.33
2018-05-25T08:56:52.303Z,101689.92
2018-05-25T08:59:18.465Z,101694.22
2018-05-25T09:01:44.563Z,101697.94
2018-05-25T09:04:10.679Z,101700.95
2018-05-25T09:06:36.668Z,101695.70
2018-05-25T09:09:02.775Z,101698.25
2018-05-25T09:11:28.792Z,101695.80
2018-05-25T09:13:54.810Z,101697.27
2018-05-25T09:16:20.906Z,101692.05
2018-05-25T09:18:48.230Z,101686.93
2018-05-25T09:21:14.233Z,101682.30
2018-05-25T09:23:40.167Z,101674.28
2018-05-25T09:26:09.640Z,101679.91
2018-05-25T09:28:36.513Z,101678.59
2018-05-25T09:31:02.578Z,101680.89
2018-05-25T09:33:28.787Z,101684.64
2018-05-25T09:35:54.885Z,101679.02
2018-05-25T09:38:20.922Z,101671.00
2018-05-25T09:40:46.943Z,101676.91
2018-05-25T09:43:13.024Z,101671.98
2018-05-25T09:45:38.775Z,101665.25
2018-05-25T09:48:08.888Z,101660.27
2018-05-25T09:50:34.807Z,101667.84
2018-05-25T09:53:00.718Z,101658.31
2018-05-25T09:55:26.791Z,101661.80
2018-05-25T09:57:56.742Z,101657.38
2018-05-25T10:00:24.666Z,101655.52
2018-05-25T10:02:50.792Z,101655.95
2018-05-25T10:05:16.735Z,101651.91
2018-05-25T10:07:42.636Z,101660.09
2018-05-25T10:10:08.604Z,101656.43
2018-05-25T10:12:41.750Z,101648.91
2018-05-25T10:15:07.692Z,101650.54
2018-05-25T10:17:34.415Z,101646.94
2018-05-25T10:20:00.364Z,101650.71
2018-05-25T10:22:26.592Z,101654.91
2018-05-25T10:24:52.885Z,101652.77
2018-05-25T10:27:18.810Z,101641.24
2018-05-25T10:29:45.511Z,101638.72
2018-05-25T10:32:12.361Z,101643.80
2018-05-25T10:34:38.991Z,101648.72
2018-05-25T10:37:05.627Z,101645.81
2018-05-25T10:39:31.764Z,101631.83
2018-05-25T10:41:57.850Z,101639.81
2018-05-25T10:44:23.885Z,101634.43
2018-05-25T10:46:49.948Z,101628.38
2018-05-25T10:49:15.876Z,101621.08
2018-05-25T10:51:41.748Z,101628.84
2018-05-25T10:54:08.769Z,101628.47
2018-05-25T10:56:34.674Z,101623.18
2018-05-25T10:59:00.685Z,101623.56
2018-05-25T11:01:26.715Z,101626.68
2018-05-25T11:03:52.786Z,101626.05
2018-05-25T11:06:18.691Z,101623.27
2018-05-25T11:08:44.705Z,101627.87
2018-05-25T11:11:10.590Z,101622.12
2018-05-25T11:13:36.582Z,101615.20
2018-05-25T11:16:02.507Z,101618.82
2018-05-25T11:18:28.447Z,101602.77
2018-05-25T11:20:54.396Z,101606.34
2018-05-25T11:23:20.593Z,101617.36
2018-05-25T11:25:46.494Z,101609.43
2018-05-25T11:28:12.379Z,101603.31
2018-05-25T11:30:38.290Z,101600.30
2018-05-25T11:33:04.267Z,101606.44
2018-05-25T11:35:30.155Z,101595.69
2018-05-25T11:37:56.263Z,101586.03
2018-05-25T11:40:22.328Z,101594.34
2018-05-25T11:42:48.244Z,101591.61
2018-05-25T11:45:14.172Z,101587.88
2018-05-25T11:47:41.091Z,101590.01
2018-05-25T11:50:06.972Z,101586.69
2018-05-25T11:52:32.913Z,101579.70
2018-05-25T11:54:58.907Z,101579.89
2018-05-25T11:57:24.913Z,101589.85
2018-05-25T11:59:51.162Z,101572.92
2018-05-25T12:02:17.072Z,101576.66
2018-05-25T12:04:43.160Z,101579.19
2018-05-25T12:07:09.139Z,101575.53
2018-05-25T12:09:35.106Z,101572.07
2018-05-25T12:12:03.184Z,101569.72
2018-05-25T12:14:29.256Z,101567.69
2018-05-25T12:16:55.232Z,101569.73
2018-05-25T12:19:22.291Z,101564.38
2018-05-25T12:21:48.275Z,101569.58
2018-05-25T12:24:14.139Z,101569.83
2018-05-25T12:26:40.043Z,101559.38
2018-05-25T12:29:06.004Z,101561.58
2018-05-25T12:31:41.757Z,101558.03
2018-05-25T12:34:07.801Z,101553.24
2018-05-25T12:36:34.081Z,101558.84
2018-05-25T12:39:00.070Z,101558.48
2018-05-25T12:41:26.173Z,101548.80
2018-05-25T12:43:52.234Z,101555.13
2018-05-25T12:46:18.156Z,101559.32
2018-05-25T12:48:44.367Z,101548.33
2018-05-25T12:51:12.353Z,101554.44
2018-05-25T12:53:38.583Z,101547.30
2018-05-25T12:56:04.507Z,101552.39
2018-05-25T12:58:30.444Z,101544.95
2018-05-25T13:00:56.404Z,101541.31
2018-05-25T13:03:22.697Z,101537.05
2018-05-25T13:05:50.154Z,101535.58
2018-05-25T13:08:16.096Z,101535.58
2018-05-25T13:10:42.078Z,101530.20
2018-05-25T13:13:09.935Z,101525.08
2018-05-25T13:15:40.712Z,101529.09
2018-05-25T13:18:06.937Z,101525.34
2018-05-25T13:20:32.928Z,101521.16
2018-05-25T13:22:58.966Z,101519.17
2018-05-25T13:25:25.007Z,101525.70
2018-05-25T13:27:51.093Z,101526.08
2018-05-25T13:30:17.217Z,101522.30
2018-05-25T13:32:45.532Z,101521.78
2018-05-25T13:35:11.496Z,101520.14
2018-05-25T13:37:41.421Z,101513.27
2018-05-25T13:40:11.175Z,101509.61
2018-05-25T13:42:37.098Z,101512.52
2018-05-25T13:45:03.031Z,101517.91
2018-05-25T13:47:29.062Z,101519.18
2018-05-25T13:49:55.128Z,101519.24
2018-05-25T13:52:21.629Z,101519.02
2018-05-25T13:54:47.645Z,101523.56
2018-05-25T13:57:15.834Z,101523.77
2018-05-25T13:59:41.724Z,101525.02
2018-05-25T14:02:07.667Z,101528.23
2018-05-25T14:04:33.537Z,101517.12
2018-05-25T14:06:59.535Z,101518.17
2018-05-25T14:09:25.513Z,101522.56
2018-05-25T14:11:51.766Z,101519.73
2018-05-25T14:14:18.229Z,101509.06
2018-05-25T14:16:44.899Z,101513.62
2018-05-25T14:19:10.887Z,101508.72
2018-05-25T14:21:37.109Z,101510.27
2018-05-25T14:24:06.283Z,101511.44
2018-05-25T14:26:32.568Z,101512.44
2018-05-25T14:28:58.578Z,101508.78
2018-05-25T14:31:24.664Z,101499.46
2018-05-25T14:33:52.150Z,101499.39
2018-05-25T14:36:18.294Z,101499.55
2018-05-25T14:38:44.887Z,101500.52
2018-05-25T14:41:11.019Z,101498.55
2018-05-25T14:43:38.014Z,101493.20
2018-05-25T14:46:04.039Z,101489.83
2018-05-25T14:48:30.269Z,101498.22
2018-05-25T14:50:56.353Z,101485.88
2018-05-25T14:53:23.163Z,101490.84
2018-05-25T14:55:49.446Z,101489.14
2018-05-25T14:58:15.456Z,101488.67
2018-05-25T15:00:41.404Z,101490.23
2018-05-25T15:03:07.320Z,101482.64
2018-05-25T15:05:33.339Z,101486.89
2018-05-25T15:07:59.491Z,101486.98
2018-05-25T15:10:25.521Z,101488.88
2018-05-25T15:12:51.801Z,101482.09
2018-05-25T15:15:17.775Z,101486.89
2018-05-25T15:17:43.795Z,101481.95
2018-05-25T15:20:09.914Z,101488.47
2018-05-25T15:22:35.918Z,101488.95
2018-05-25T15:25:02.299Z,101480.50
2018-05-25T15:27:28.346Z,101489.79
2018-05-25T15:29:54.536Z,101480.32
2018-05-25T15:32:20.583Z,101482.30
2018-05-25T15:34:46.810Z,101477.37
2018-05-25T15:37:13.940Z,101482.95
2018-05-25T15:39:41.000Z,101486.96
2018-05-25T15:42:06.905Z,101475.09
2018-05-25T15:44:32.847Z,101482.94
2018-05-25T15:46:59.110Z,101473.91
2018-05-25T15:49:26.274Z,101478.78
2018-05-25T15:51:52.586Z,101470.70
2018-05-25T15:54:18.517Z,101468.81
2018-05-25T15:56:44.630Z,101467.74
2018-05-25T15:59:13.404Z,101468.08
2018-05-25T16:01:39.440Z,101472.68
2018-05-25T16:04:05.332Z,101472.25
2018-05-25T16:06:31.348Z,101474.69
2018-05-25T16:08:58.449Z,101474.36
2018-05-25T16:11:24.553Z,101478.91
2018-05-25T16:13:50.479Z,101469.48
2018-05-25T16:16:16.921Z,101467.63
2018-05-25T16:18:46.456Z,101471.34
2018-05-25T16:21:12.799Z,101470.59
2018-05-25T16:23:38.913Z,101471.92
2018-05-25T16:26:05.256Z,101463.27
2018-05-25T16:28:31.372Z,101469.52
2018-05-25T16:30:57.256Z,101465.34
2018-05-25T16:33:23.192Z,101463.69
2018-05-25T16:35:49.117Z,101458.47
2018-05-25T16:38:15.029Z,101459.77
2018-05-25T16:40:40.992Z,101456.81
2018-05-25T16:43:07.227Z,101459.34
2018-05-25T16:45:33.244Z,101464.56
2018-05-25T16:47:59.128Z,101460.87
2018-05-25T16:50:25.052Z,101466.19
2018-05-25T16:52:50.979Z,101457.85
2018-05-25T16:55:16.822Z,101452.02
2018-05-25T16:57:42.951Z,101456.32
2018-05-25T17:00:10.263Z,101460.20
2018-05-25T17:02:37.865Z,101466.42
2018-05-25T17:05:04.642Z,101465.75
2018-05-25T17:07:31.977Z,101466.12
2018-05-25T17:09:57.933Z,101474.53
2018-05-25T17:12:23.900Z,101468.32
2018-05-25T17:14:49.756Z,101472.31
2018-05-25T17:17:15.659Z,101464.60
2018-05-25T17:19:42.182Z,101472.13
2018-05-25T17:22:08.561Z,101478.58
2018-05-25T17:24:34.968Z,101476.86
2018-05-25T17:27:01.024Z,101477.99
2018-05-25T17:29:28.959Z,101474.38
2018-05-25T17:31:57.713Z,101474.20
2018-05-25T17:34:23.788Z,101478.50
2018-05-25T17:36:49.687Z,101480.61
2018-05-25T17:39:15.577Z,101474.84
2018-05-25T17:41:41.772Z,101480.73
2018-05-25T17:44:08.034Z,101483.30
2018-05-25T17:46:34.244Z,101476.81
2018-05-25T17:49:00.520Z,101481.42
2018-05-25T17:51:26.404Z,101480.64
2018-05-25T17:53:52.293Z,101482.47
2018-05-25T17:56:22.679Z,101489.36
2018-05-25T17:58:48.569Z,101495.36
2018-05-25T18:01:14.511Z,101501.84
2018-05-25T18:03:40.642Z,101500.74
2018-05-25T18:06:06.718Z,101506.45
2018-05-25T18:08:32.760Z,101510.98
2018-05-25T18:10:58.682Z,101528.42
2018-05-25T18:13:24.573Z,101519.48
2018-05-25T18:15:50.457Z,101526.34
2018-05-25T18:18:16.402Z,101532.27
2018-05-25T18:20:42.406Z,101539.84
2018-05-25T18:23:08.455Z,101532.88
2018-05-25T18:25:34.557Z,101535.69
2018-05-25T18:28:00.436Z,101535.72
2018-05-25T18:30:26.340Z,101536.34
2018-05-25T18:32:52.298Z,101540.62
2018-05-25T18:35:18.232Z,101542.13
2018-05-25T18:37:46.156Z,101550.15
2018-05-25T18:40:12.180Z,101558.59
2018-05-25T18:42:38.319Z,101563.52
2018-05-25T18:45:04.544Z,101562.97
2018-05-25T18:47:30.511Z,101567.00
2018-05-25T18:49:56.399Z,101571.22
2018-05-25T18:52:22.303Z,101580.66
2018-05-25T18:54:48.222Z,101586.35
2018-05-25T18:57:14.196Z,101586.73
2018-05-25T18:59:40.129Z,101599.66
2018-05-25T19:02:06.390Z,101592.43
2018-05-25T19:04:32.672Z,101593.37
2018-05-25T19:06:58.584Z,101599.49
2018-05-25T19:09:24.622Z,101596.35
2018-05-25T19:11:50.527Z,101602.92
2018-05-25T19:14:16.431Z,101605.13
2018-05-25T19:16:42.474Z,101605.76
2018-05-25T19:19:08.612Z,101608.87
2018-05-25T19:21:34.699Z,101613.03
2018-05-25T19:24:00.664Z,101611.69
2018-05-25T19:26:26.564Z,101612.34
2018-05-25T19:28:53.499Z,101614.77
2018-05-25T19:31:19.612Z,101615.38
2018-05-25T19:33:46.229Z,101611.12
2018-05-25T19:36:12.501Z,101618.84
2018-05-25T19:38:38.507Z,101619.32
2018-05-25T19:41:04.352Z,101625.39
2018-05-25T19:43:30.228Z,101622.73
2018-05-25T19:45:56.326Z,101624.67
2018-05-25T19:48:22.224Z,101622.66
2018-05-25T19:50:48.270Z,101631.86
2018-05-25T19:53:14.459Z,101631.45
2018-05-25T19:55:40.345Z,101620.58
2018-05-25T19:58:06.310Z,101624.17
2018-05-25T20:00:32.256Z,101622.76
2018-05-25T20:02:58.132Z,101624.98
2018-05-25T20:05:27.207Z,101622.55
2018-05-25T20:07:53.579Z,101619.45
2018-05-25T20:10:19.667Z,101630.51
2018-05-25T20:12:45.723Z,101632.34
2018-05-25T20:15:11.852Z,101628.47
2018-05-25T20:17:37.742Z,101624.27
2018-05-25T20:20:03.629Z,101631.98
2018-05-25T20:22:30.623Z,101637.11
2018-05-25T20:24:56.509Z,101634.14
2018-05-25T20:27:22.868Z,101632.66
2018-05-25T20:29:48.829Z,101630.30
2018-05-25T20:32:14.972Z,101639.03
2018-05-25T20:34:40.967Z,101637.09
2018-05-25T20:37:06.904Z,101637.27
2018-05-25T20:39:32.782Z,101640.35
2018-05-25T20:41:58.891Z,101641.62
2018-05-25T20:44:25.130Z,101633.99
2018-05-25T20:46:51.950Z,101639.27
2018-05-25T20:49:17.905Z,101647.17
2018-05-25T20:51:43.972Z,101641.15
2018-05-25T20:54:10.069Z,101645.52
2018-05-25T20:56:35.955Z,101646.09
2018-05-25T20:59:02.090Z,101655.29
2018-05-25T21:01:28.079Z,101650.25
2018-05-25T21:03:53.951Z,101656.54
2018-05-25T21:06:19.967Z,101655.50
2018-05-25T21:08:46.113Z,101652.84
2018-05-25T21:11:12.512Z,101655.94
2018-05-25T21:13:38.587Z,101656.69
2018-05-25T21:16:04.846Z,101655.68
2018-05-25T21:18:30.763Z,101652.34
2018-05-25T21:20:56.710Z,101655.29
2018-05-25T21:23:22.708Z,101661.91
2018-05-25T21:25:48.718Z,101670.26
2018-05-25T21:28:15.006Z,101668.07
2018-05-25T21:30:41.047Z,101668.69
2018-05-25T21:33:06.956Z,101667.22
2018-05-25T21:35:32.910Z,101671.92
2018-05-25T21:37:58.811Z,101674.08
2018-05-25T21:40:24.690Z,101670.65
2018-05-25T21:42:50.741Z,101677.97
2018-05-25T21:45:17.167Z,101678.75
2018-05-25T21:47:43.155Z,101679.77
2018-05-25T21:50:09.123Z,101678.30
2018-05-25T21:52:35.282Z,101672.39
2018-05-25T21:55:01.531Z,101670.88
2018-05-25T21:57:27.455Z,101678.75
2018-05-25T21:59:53.447Z,101680.78
2018-05-25T22:02:19.324Z,101679.84
2018-05-25T22:04:45.547Z,101684.48
2018-05-25T22:07:11.481Z,101687.48
2018-05-25T22:09:37.524Z,101682.90
2018-05-25T22:12:03.471Z,101682.47
2018-05-25T22:14:29.358Z,101681.70
2018-05-25T22:16:55.278Z,101674.95
2018-05-25T22:19:21.245Z,101675.82
2018-05-25T22:21:47.165Z,101667.61
2018-05-25T22:24:13.086Z,101677.58
2018-05-25T22:26:39.138Z,101679.06
2018-05-25T22:29:05.112Z,101677.07
2018-05-25T22:31:31.063Z,101679.41
2018-05-25T22:33:57.054Z,101679.19
2018-05-25T22:36:22.935Z,101681.44
2018-05-25T22:38:48.960Z,101689.28
2018-05-25T22:41:14.896Z,101685.94
2018-05-25T22:43:53.058Z,101685.16
2018-05-25T22:46:31.336Z,101686.23
2018-05-25T22:49:09.785Z,101689.97
2018-05-25T22:51:48.107Z,101680.72
2018-05-25T22:54:40.851Z,101692.97
2018-05-25T22:57:06.852Z,101691.43
2018-05-25T22:59:32.823Z,101697.34
2018-05-25T23:01:58.692Z,101693.23
2018-05-25T23:04:24.654Z,101696.05
2018-05-25T23:06:50.571Z,101693.61
2018-05-25T23:09:16.792Z,101690.70
2018-05-25T23:11:42.825Z,101690.78
2018-05-25T23:14:08.707Z,101691.89
2018-05-25T23:16:34.594Z,101692.06
2018-05-25T23:19:00.556Z,101699.38
2018-05-25T23:21:26.492Z,101703.63
2018-05-25T23:23:52.448Z,101697.05
2018-05-25T23:26:18.443Z,101699.83
2018-05-25T23:28:44.308Z,101708.34
2018-05-25T23:31:10.192Z,101701.36
2018-05-25T23:33:36.186Z,101701.88
2018-05-25T23:36:02.149Z,101710.48
2018-05-25T23:38:28.031Z,101709.02
2018-05-25T23:40:54.006Z,101707.02
2018-05-25T23:43:19.895Z,101696.96
2018-05-25T23:45:45.850Z,101699.59
2018-05-25T23:48:11.904Z,101695.18
2018-05-25T23:50:37.827Z,101698.79
2018-05-25T23:53:03.704Z,101691.77
2018-05-25T23:55:29.620Z,101704.27
2018-05-25T23:57:55.582Z,101695.52
